createdAt,value
2018-09-06T00:01:04.222Z,20.90
2018-09-06T00:03:32.556Z,23.27
2018-09-06T00:06:00.954Z,23.97
2018-09-06T00:08:29.257Z,20.77
2018-09-06T00:10:57.579Z,20.30
2018-09-06T00:13:25.897Z,20.93
2018-09-06T00:15:54.188Z,20.53
2018-09-06T00:18:22.454Z,21.13
2018-09-06T00:20:50.802Z,21.73
2018-09-06T00:23:19.128Z,21.70
2018-09-06T00:25:47.463Z,20.43
2018-09-06T00:28:15.836Z,22.80
2018-09-06T00:30:44.154Z,20.90
2018-09-06T00:33:12.479Z,19.70
2018-09-06T00:35:40.857Z,22.07
2018-09-06T00:38:09.174Z,21.13
2018-09-06T00:40:37.551Z,19.33
2018-09-06T00:43:06.069Z,22.83
2018-09-06T00:45:34.668Z,21.03
2018-09-06T00:48:04.471Z,21.00
2018-09-06T00:50:40.126Z,22.13
2018-09-06T00:53:08.456Z,20.07
2018-09-06T00:55:37.166Z,21.13
2018-09-06T00:58:05.509Z,20.47
2018-09-06T01:00:33.824Z,21.50
2018-09-06T01:03:02.141Z,21.23
2018-09-06T01:05:30.896Z,21.63
2018-09-06T01:07:59.524Z,22.97
2018-09-06T01:10:28.081Z,19.23
2018-09-06T01:12:56.435Z,22.53
2018-09-06T01:15:24.737Z,20.77
2018-09-06T01:17:53.079Z,19.27
2018-09-06T01:20:21.448Z,20.43
2018-09-06T01:22:49.800Z,20.87
2018-09-06T01:25:18.206Z,20.73
2018-09-06T01:27:46.532Z,20.60
2018-09-06T01:30:14.843Z,19.97
2018-09-06T01:32:43.160Z,21.47
2018-09-06T01:35:11.526Z,19.87
2018-09-06T01:37:39.814Z,21.40
2018-09-06T01:40:08.202Z,19.07
2018-09-06T01:42:36.512Z,23.10
2018-09-06T01:45:04.865Z,18.97
2018-09-06T01:47:33.540Z,21.97
2018-09-06T01:50:01.954Z,20.47
2018-09-06T01:52:30.286Z,20.43
2018-09-06T01:54:58.697Z,21.73
2018-09-06T01:57:27.108Z,22.90
2018-09-06T01:59:55.593Z,21.13
2018-09-06T02:02:24.082Z,21.23
2018-09-06T02:04:52.506Z,24.27
2018-09-06T02:07:20.884Z,22.33
2018-09-06T02:09:49.312Z,20.03
2018-09-06T02:12:17.767Z,19.87
2018-09-06T02:14:46.109Z,20.53
2018-09-06T02:17:14.491Z,21.00
2018-09-06T02:19:42.854Z,22.30
2018-09-06T02:22:11.286Z,25.43
2018-09-06T02:24:39.641Z,19.90
2018-09-06T02:27:08.065Z,20.50
2018-09-06T02:29:36.445Z,20.57
2018-09-06T02:32:04.956Z,21.07
2018-09-06T02:34:33.324Z,20.67
2018-09-06T02:37:01.721Z,21.07
2018-09-06T02:39:30.121Z,21.30
2018-09-06T02:41:58.527Z,19.43
2018-09-06T02:44:26.865Z,20.30
2018-09-06T02:46:55.341Z,21.53
2018-09-06T02:49:29.055Z,21.57
2018-09-06T02:51:57.385Z,20.27
2018-09-06T02:54:25.824Z,20.27
2018-09-06T02:56:54.213Z,21.73
2018-09-06T02:59:22.635Z,19.73
2018-09-06T03:01:51.067Z,20.80
2018-09-06T03:04:19.443Z,20.23
2018-09-06T03:06:48.833Z,19.37
2018-09-06T03:09:17.240Z,20.97
2018-09-06T03:11:52.374Z,20.20
2018-09-06T03:17:23.537Z,20.70
2018-09-06T03:19:51.924Z,19.37
2018-09-06T03:22:20.336Z,20.27
2018-09-06T03:24:48.709Z,19.67
2018-09-06T03:27:17.190Z,20.53
2018-09-06T03:29:45.587Z,21.23
2018-09-06T03:32:14.190Z,22.13
2018-09-06T03:34:42.560Z,21.33
2018-09-06T03:37:11.052Z,22.67
2018-09-06T03:39:39.488Z,21.50
2018-09-06T03:42:08.037Z,20.17
2018-09-06T03:44:36.500Z,23.40
2018-09-06T03:47:04.947Z,20.87
2018-09-06T03:49:33.378Z,21.17
2018-09-06T03:52:01.885Z,20.63
2018-09-06T03:54:30.322Z,20.07
2018-09-06T03:56:58.807Z,20.83
2018-09-06T03:59:27.244Z,20.43
2018-09-06T04:01:55.680Z,21.60
2018-09-06T04:04:24.251Z,21.90
2018-09-06T04:06:52.776Z,21.97
2018-09-06T04:09:21.214Z,25.83
2018-09-06T04:11:49.656Z,22.83
2018-09-06T04:14:18.089Z,21.43
2018-09-06T04:16:46.567Z,22.23
2018-09-06T04:19:14.963Z,23.90
2018-09-06T04:21:44.565Z,21.77
2018-09-06T04:24:13.157Z,21.70
2018-09-06T04:26:41.609Z,20.87
2018-09-06T04:29:10.227Z,21.87
2018-09-06T04:31:38.710Z,22.53
2018-09-06T04:34:07.253Z,21.27
2018-09-06T04:36:35.822Z,21.90
2018-09-06T04:39:06.166Z,25.47
2018-09-06T04:41:34.655Z,21.83
2018-09-06T04:44:03.167Z,19.60
2018-09-06T04:46:31.752Z,20.00
2018-09-06T04:49:00.222Z,21.50
2018-09-06T04:51:28.754Z,23.83
2018-09-06T04:53:57.167Z,22.43
2018-09-06T04:56:25.645Z,22.53
2018-09-06T04:58:54.275Z,22.07
2018-09-06T05:01:22.789Z,22.37
2018-09-06T05:03:51.379Z,21.93
2018-09-06T05:06:19.816Z,23.07
2018-09-06T05:08:48.273Z,22.63
2018-09-06T05:11:16.794Z,23.87
2018-09-06T05:13:45.231Z,24.40
2018-09-06T05:16:13.715Z,24.70
2018-09-06T05:18:42.196Z,26.63
2018-09-06T05:21:10.796Z,26.47
2018-09-06T05:23:39.258Z,23.77
2018-09-06T05:26:07.712Z,24.57
2018-09-06T05:28:36.145Z,26.27
2018-09-06T05:31:04.617Z,25.57
2018-09-06T05:33:33.179Z,27.07
2018-09-06T05:36:01.693Z,26.60
2018-09-06T05:38:30.124Z,31.47
2018-09-06T05:40:58.598Z,29.70
2018-09-06T05:43:26.952Z,30.67
2018-09-06T05:45:55.475Z,37.07
2018-09-06T05:48:24.043Z,49.77
2018-09-06T05:50:52.376Z,34.43
2018-09-06T05:53:20.830Z,34.27
2018-09-06T05:55:49.277Z,30.27
2018-09-06T05:58:17.704Z,30.40
2018-09-06T06:00:48.175Z,29.07
2018-09-06T06:03:16.776Z,30.50
2018-09-06T06:05:45.106Z,31.00
2018-09-06T06:08:24.892Z,31.00
2018-09-06T06:10:53.247Z,30.57
2018-09-06T06:13:21.693Z,31.57
2018-09-06T06:15:50.107Z,29.57
2018-09-06T06:18:18.509Z,29.00
2018-09-06T06:20:46.886Z,31.73
2018-09-06T06:23:15.276Z,31.77
2018-09-06T06:25:43.609Z,32.47
2018-09-06T06:28:12.054Z,30.27
2018-09-06T06:30:40.483Z,34.67
2018-09-06T06:33:08.824Z,41.93
2018-09-06T06:35:37.269Z,32.27
2018-09-06T06:38:05.644Z,31.43
2018-09-06T06:40:34.068Z,35.40
2018-09-06T06:43:02.513Z,33.47
2018-09-06T06:45:30.857Z,32.97
2018-09-06T06:47:59.271Z,33.53
2018-09-06T06:50:27.718Z,32.03
2018-09-06T06:52:56.007Z,33.30
2018-09-06T06:55:24.452Z,32.70
2018-09-06T06:57:52.788Z,33.97
2018-09-06T07:00:21.610Z,36.37
2018-09-06T07:02:50.981Z,33.17
2018-09-06T07:05:19.368Z,39.67
2018-09-06T07:07:47.850Z,33.07
2018-09-06T07:10:16.197Z,33.93
2018-09-06T07:12:44.564Z,34.17
2018-09-06T07:15:13.059Z,33.20
2018-09-06T07:17:41.449Z,34.17
2018-09-06T07:20:09.827Z,34.53
2018-09-06T07:22:38.216Z,35.57
2018-09-06T07:25:06.992Z,35.07
2018-09-06T07:27:35.329Z,34.67
2018-09-06T07:30:03.677Z,32.60
2018-09-06T07:32:32.073Z,36.73
2018-09-06T07:35:00.415Z,33.83
2018-09-06T07:37:29.879Z,36.10
2018-09-06T07:39:58.219Z,33.87
2018-09-06T07:42:26.572Z,38.20
2018-09-06T07:44:54.882Z,37.57
2018-09-06T07:47:23.451Z,38.03
2018-09-06T07:49:51.801Z,34.10
2018-09-06T07:52:20.193Z,36.87
2018-09-06T07:57:39.034Z,39.17
2018-09-06T08:00:07.402Z,39.13
2018-09-06T08:02:35.713Z,42.83
2018-09-06T08:05:04.099Z,43.73
2018-09-06T08:07:32.440Z,35.60
2018-09-06T08:10:00.744Z,42.00
2018-09-06T08:12:29.095Z,42.53
2018-09-06T08:14:57.411Z,37.40
2018-09-06T08:17:25.821Z,39.43
2018-09-06T08:19:54.224Z,42.17
2018-09-06T08:22:22.652Z,42.83
2018-09-06T08:24:50.990Z,38.37
2018-09-06T08:27:19.316Z,36.67
2018-09-06T08:29:47.647Z,40.27
2018-09-06T08:32:15.938Z,37.10
2018-09-06T08:34:44.261Z,33.87
2018-09-06T08:37:12.649Z,33.33
2018-09-06T08:39:41.000Z,38.53
2018-09-06T08:42:09.316Z,36.27
2018-09-06T08:44:37.622Z,34.77
2018-09-06T08:47:05.943Z,34.77
2018-09-06T08:49:34.366Z,30.90
2018-09-06T08:52:02.744Z,34.90
2018-09-06T08:54:31.124Z,32.40
2018-09-06T08:56:59.515Z,36.87
2018-09-06T08:59:27.840Z,31.20
2018-09-06T09:01:56.214Z,35.67
2018-09-06T09:04:24.597Z,37.57
2018-09-06T09:06:52.912Z,32.50
2018-09-06T09:09:21.208Z,29.70
2018-09-06T09:11:49.663Z,26.57
2018-09-06T09:14:17.972Z,31.77
2018-09-06T09:16:46.316Z,26.70
2018-09-06T09:19:14.675Z,29.27
2018-09-06T09:21:43.070Z,26.27
2018-09-06T09:24:11.350Z,29.53
2018-09-06T09:26:39.752Z,25.00
2018-09-06T09:29:08.094Z,29.97
2018-09-06T09:31:36.538Z,29.63
2018-09-06T09:34:04.919Z,26.40
2018-09-06T09:36:33.343Z,25.50
2018-09-06T09:39:01.876Z,25.93
2018-09-06T09:41:30.220Z,25.07
2018-09-06T09:43:58.519Z,29.00
2018-09-06T09:51:21.969Z,22.67
2018-09-06T09:53:50.398Z,23.70
2018-09-06T09:56:18.747Z,20.50
2018-09-06T09:58:47.214Z,25.17
2018-09-06T10:01:15.661Z,24.00
2018-09-06T10:06:23.159Z,21.10
2018-09-06T10:08:56.739Z,21.13
2018-09-06T10:11:25.555Z,15.77
2018-09-06T10:13:53.958Z,21.97
2018-09-06T10:16:22.431Z,18.33
2018-09-06T10:18:50.774Z,16.07
2018-09-06T10:21:19.189Z,19.83
2018-09-06T10:23:47.591Z,20.43
2018-09-06T10:26:16.036Z,16.43
2018-09-06T10:28:44.378Z,18.67
2018-09-06T10:31:12.764Z,15.53
2018-09-06T10:33:41.196Z,15.57
2018-09-06T10:36:09.698Z,14.33
2018-09-06T10:38:38.107Z,18.10
2018-09-06T10:41:06.611Z,15.60
2018-09-06T10:43:35.152Z,19.17
2018-09-06T10:46:03.750Z,15.43
2018-09-06T10:48:32.197Z,12.47
2018-09-06T10:51:00.949Z,12.93
2018-09-06T10:53:29.327Z,14.43
2018-09-06T10:55:57.732Z,12.00
2018-09-06T10:58:26.177Z,15.23
2018-09-06T11:00:59.953Z,13.00
2018-09-06T11:03:28.587Z,11.93
2018-09-06T11:05:56.939Z,15.13
2018-09-06T11:08:26.434Z,14.67
2018-09-06T11:10:54.682Z,15.97
2018-09-06T11:13:23.188Z,13.30
2018-09-06T11:15:51.568Z,17.87
2018-09-06T11:18:19.977Z,14.17
2018-09-06T11:20:48.299Z,14.10
2018-09-06T11:23:16.733Z,14.97
2018-09-06T11:25:45.385Z,15.30
2018-09-06T11:28:13.760Z,17.83
2018-09-06T11:30:42.115Z,17.90
2018-09-06T11:33:10.573Z,17.90
2018-09-06T11:35:39.293Z,18.30
2018-09-06T11:38:07.737Z,11.77
2018-09-06T11:40:36.812Z,17.43
2018-09-06T11:43:05.208Z,13.07
2018-09-06T11:45:33.556Z,12.03
2018-09-06T11:48:01.962Z,15.97
2018-09-06T11:50:30.448Z,12.23
2018-09-06T11:52:58.766Z,12.37
2018-09-06T11:55:27.199Z,14.20
2018-09-06T11:57:56.531Z,12.83
2018-09-06T12:00:25.300Z,16.37
2018-09-06T12:02:53.789Z,12.77
2018-09-06T12:05:22.147Z,11.53
2018-09-06T12:07:50.495Z,14.53
2018-09-06T12:10:19.185Z,12.93
2018-09-06T12:12:47.616Z,15.87
2018-09-06T12:15:15.956Z,14.13
2018-09-06T12:17:45.430Z,12.93
2018-09-06T12:20:13.809Z,15.13
2018-09-06T12:22:42.191Z,11.13
2018-09-06T12:25:10.704Z,10.90
2018-09-06T12:27:39.168Z,12.50
2018-09-06T12:30:07.600Z,13.30
2018-09-06T12:32:36.059Z,11.13
2018-09-06T12:35:04.760Z,14.00
2018-09-06T12:37:34.144Z,13.13
2018-09-06T12:40:02.501Z,11.03
2018-09-06T12:42:30.812Z,12.63
2018-09-06T12:45:00.638Z,13.20
2018-09-06T12:47:28.968Z,11.60
2018-09-06T12:49:57.289Z,11.50
2018-09-06T12:52:25.705Z,12.17
2018-09-06T12:54:54.075Z,11.80
2018-09-06T12:57:22.481Z,13.83
2018-09-06T12:59:50.900Z,12.00
2018-09-06T13:02:19.579Z,13.17
2018-09-06T13:04:47.929Z,10.60
2018-09-06T13:07:17.329Z,11.77
2018-09-06T13:09:45.857Z,13.67
2018-09-06T13:12:15.265Z,12.67
2018-09-06T13:14:44.975Z,11.30
2018-09-06T13:17:13.319Z,13.33
2018-09-06T13:19:41.708Z,11.37
2018-09-06T13:22:10.129Z,11.40
2018-09-06T13:24:38.699Z,10.17
2018-09-06T13:27:07.026Z,16.00
2018-09-06T13:29:36.425Z,12.47
2018-09-06T13:32:04.752Z,11.13
2018-09-06T13:34:33.238Z,12.27
2018-09-06T13:37:01.627Z,12.37
2018-09-06T13:39:30.101Z,14.53
2018-09-06T13:41:58.421Z,15.53
2018-09-06T13:44:26.713Z,12.50
2018-09-06T13:46:55.049Z,9.87
2018-09-06T13:49:23.352Z,9.77
2018-09-06T13:51:51.654Z,11.13
2018-09-06T13:54:20.053Z,12.03
2018-09-06T13:56:48.599Z,12.17
2018-09-06T13:59:16.938Z,10.50
2018-09-06T14:01:45.359Z,9.27
2018-09-06T14:04:13.734Z,11.73
2018-09-06T14:06:42.024Z,10.07
2018-09-06T14:09:10.392Z,9.97
2018-09-06T14:11:38.778Z,10.97
2018-09-06T14:14:07.073Z,13.60
2018-09-06T14:16:35.451Z,9.37
2018-09-06T14:19:04.034Z,15.63
2018-09-06T14:21:32.448Z,9.93
2018-09-06T14:24:00.808Z,12.10
2018-09-06T14:26:29.096Z,9.80
2018-09-06T14:28:57.708Z,10.83
2018-09-06T14:31:26.093Z,10.37
2018-09-06T14:33:54.388Z,13.73
2018-09-06T14:36:22.778Z,10.80
2018-09-06T14:38:51.169Z,14.37
2018-09-06T14:41:19.516Z,10.37
2018-09-06T14:43:47.897Z,10.53
2018-09-06T14:46:16.415Z,11.57
2018-09-06T14:48:44.905Z,16.50
2018-09-06T14:51:13.295Z,10.43
2018-09-06T14:53:41.640Z,11.90
2018-09-06T14:56:10.140Z,12.43
2018-09-06T14:58:38.594Z,14.03
2018-09-06T15:01:07.281Z,11.47
2018-09-06T15:03:35.588Z,16.10
2018-09-06T15:06:03.963Z,16.63
2018-09-06T15:08:32.264Z,11.23
2018-09-06T15:11:00.582Z,11.03
2018-09-06T15:13:28.918Z,11.97
2018-09-06T15:15:57.199Z,13.00
2018-09-06T15:18:25.585Z,10.60
2018-09-06T15:20:53.942Z,12.83
2018-09-06T15:23:22.278Z,11.60
2018-09-06T15:25:50.762Z,11.00
2018-09-06T15:28:19.108Z,10.50
2018-09-06T15:30:47.502Z,9.80
2018-09-06T15:33:15.837Z,9.37
2018-09-06T15:35:44.168Z,11.87
2018-09-06T15:38:12.593Z,9.73
2018-09-06T15:40:40.880Z,13.53
2018-09-06T15:43:09.170Z,9.70
2018-09-06T15:45:37.499Z,13.20
2018-09-06T15:48:05.829Z,12.07
2018-09-06T15:50:34.401Z,15.40
2018-09-06T15:53:02.733Z,12.37
2018-09-06T15:55:31.035Z,10.47
2018-09-06T15:57:59.373Z,12.00
2018-09-06T16:00:27.677Z,9.60
2018-09-06T16:02:56.055Z,14.90
2018-09-06T16:05:24.544Z,13.90
2018-09-06T16:07:52.922Z,11.07
2018-09-06T16:10:21.230Z,11.67
2018-09-06T16:12:49.644Z,10.37
2018-09-06T16:15:18.214Z,13.60
2018-09-06T16:17:46.537Z,10.07
2018-09-06T16:20:14.891Z,10.27
2018-09-06T16:22:44.065Z,12.93
2018-09-06T16:25:12.465Z,11.40
2018-09-06T16:27:40.842Z,10.13
2018-09-06T16:30:09.181Z,11.07
2018-09-06T16:32:37.478Z,10.47
2018-09-06T16:35:05.803Z,10.57
2018-09-06T16:37:34.193Z,13.20
2018-09-06T16:40:02.976Z,10.30
2018-09-06T16:42:31.395Z,12.63
2018-09-06T16:44:59.600Z,12.23
2018-09-06T16:47:27.990Z,11.17
2018-09-06T16:49:56.291Z,12.57
2018-09-06T16:52:24.778Z,13.47
2018-09-06T16:54:53.164Z,13.90
2018-09-06T16:57:21.504Z,11.80
2018-09-06T16:59:49.802Z,10.07
2018-09-06T17:02:18.351Z,12.43
2018-09-06T17:04:46.663Z,14.83
2018-09-06T17:07:14.983Z,14.43
2018-09-06T17:09:43.347Z,11.83
2018-09-06T17:12:11.742Z,10.87
2018-09-06T17:14:40.258Z,11.93
2018-09-06T17:17:08.647Z,10.87
2018-09-06T17:19:37.806Z,12.17
2018-09-06T17:22:06.185Z,14.60
2018-09-06T17:24:34.510Z,13.73
2018-09-06T17:27:02.877Z,15.70
2018-09-06T17:29:31.206Z,12.33
2018-09-06T17:31:59.594Z,16.10
2018-09-06T17:34:29.162Z,16.13
2018-09-06T17:36:57.511Z,12.63
2018-09-06T17:39:25.896Z,12.03
2018-09-06T17:41:54.227Z,13.23
2018-09-06T17:44:22.643Z,17.57
2018-09-06T17:46:50.984Z,11.83
2018-09-06T17:49:19.343Z,11.33
2018-09-06T17:51:47.631Z,13.00
2018-09-06T17:54:15.953Z,14.93
2018-09-06T17:56:44.249Z,15.17
2018-09-06T17:59:12.700Z,17.63
2018-09-06T18:01:43.148Z,13.70
2018-09-06T18:04:11.644Z,14.97
2018-09-06T18:06:40.003Z,18.67
2018-09-06T18:09:09.628Z,12.30
2018-09-06T18:11:38.101Z,14.93
2018-09-06T18:14:06.495Z,19.20
2018-09-06T18:16:36.136Z,14.33
2018-09-06T18:19:04.721Z,14.40
2018-09-06T18:21:33.409Z,11.50
2018-09-06T18:24:03.137Z,12.53
2018-09-06T18:26:31.787Z,14.93
2018-09-06T18:31:53.850Z,18.00
2018-09-06T18:34:22.740Z,14.17
2018-09-06T18:36:51.716Z,11.83
2018-09-06T18:39:20.454Z,17.33
2018-09-06T18:41:48.970Z,18.13
2018-09-06T18:44:33.358Z,17.93
2018-09-06T18:47:05.240Z,14.00
2018-09-06T18:49:34.182Z,16.13
2018-09-06T18:52:03.022Z,12.70
2018-09-06T18:54:31.723Z,12.43
2018-09-06T18:57:00.505Z,16.83
2018-09-06T18:59:29.132Z,16.87
2018-09-06T19:01:57.663Z,16.40
2018-09-06T19:04:26.279Z,18.97
2018-09-06T19:06:55.203Z,16.73
2018-09-06T19:09:25.684Z,15.77
2018-09-06T19:11:57.258Z,14.83
2018-09-06T19:14:37.279Z,12.93
2018-09-06T19:17:08.140Z,18.60
2018-09-06T19:19:36.623Z,15.57
2018-09-06T19:22:05.740Z,13.37
2018-09-06T19:30:16.198Z,15.50
2018-09-06T19:32:44.797Z,13.03
2018-09-06T19:35:13.816Z,14.70
2018-09-06T19:37:52.313Z,13.30
2018-09-06T19:40:21.328Z,16.00
2018-09-06T19:42:49.680Z,15.33
2018-09-06T19:45:18.051Z,14.77
2018-09-06T19:47:46.470Z,14.40
2018-09-06T19:50:14.879Z,18.83
2018-09-06T19:52:43.272Z,14.70
2018-09-06T19:55:11.626Z,19.37
2018-09-06T19:57:39.945Z,17.07
2018-09-06T20:00:09.148Z,18.17
2018-09-06T20:02:37.542Z,15.77
2018-09-06T20:05:05.982Z,16.20
2018-09-06T20:07:34.366Z,18.20
2018-09-06T20:10:02.748Z,15.57
2018-09-06T20:12:31.106Z,12.30
2018-09-06T20:14:59.454Z,18.57
2018-09-06T20:17:27.752Z,17.73
2018-09-06T20:19:56.060Z,12.83
2018-09-06T20:22:24.502Z,12.03
2018-09-06T20:24:52.800Z,15.00
2018-09-06T20:27:21.128Z,14.67
2018-09-06T20:29:49.495Z,13.83
2018-09-06T20:32:17.833Z,9.60
2018-09-06T20:34:46.123Z,10.27
2018-09-06T20:37:14.429Z,10.53
2018-09-06T20:39:42.978Z,11.43
2018-09-06T20:42:11.473Z,11.43
2018-09-06T20:44:39.741Z,14.53
2018-09-06T20:47:09.021Z,13.20
2018-09-06T20:49:37.347Z,14.17
2018-09-06T20:52:05.733Z,10.83
2018-09-06T20:54:34.051Z,11.77
2018-09-06T20:57:02.684Z,10.97
2018-09-06T20:59:31.023Z,18.40
2018-09-06T21:03:06.640Z,13.40
2018-09-06T21:05:34.928Z,10.47
2018-09-06T21:08:03.228Z,11.83
2018-09-06T21:10:31.619Z,15.10
2018-09-06T21:13:00.000Z,9.63
2018-09-06T21:15:29.321Z,12.13
2018-09-06T21:17:58.033Z,10.17
2018-09-06T21:20:26.430Z,13.33
2018-09-06T21:22:54.800Z,14.47
2018-09-06T21:25:23.296Z,14.50
2018-09-06T21:27:51.694Z,14.03
2018-09-06T21:30:20.119Z,14.93
2018-09-06T21:32:48.485Z,13.40
2018-09-06T21:35:16.895Z,14.80
2018-09-06T21:37:45.304Z,10.83
2018-09-06T21:40:13.706Z,15.70
2018-09-06T21:42:42.025Z,14.73
2018-09-06T21:45:10.381Z,15.87
2018-09-06T21:47:38.787Z,12.47
2018-09-06T21:50:07.458Z,15.37
2018-09-06T21:52:36.844Z,13.13
2018-09-06T21:55:05.441Z,15.00
2018-09-06T21:57:33.874Z,11.83
2018-09-06T22:00:02.176Z,13.47
2018-09-06T22:03:37.612Z,13.90
2018-09-06T22:06:06.000Z,11.90
2018-09-06T22:08:34.430Z,11.70
2018-09-06T22:11:02.895Z,13.13
2018-09-06T22:13:31.281Z,12.87
2018-09-06T22:15:59.679Z,13.97
2018-09-06T22:18:28.008Z,13.87
2018-09-06T22:20:56.736Z,13.53
2018-09-06T22:23:25.177Z,12.90
2018-09-06T22:25:53.579Z,15.33
2018-09-06T22:28:22.199Z,15.17
2018-09-06T22:30:50.483Z,13.17
2018-09-06T22:33:18.794Z,11.70
2018-09-06T22:35:47.202Z,14.27
2018-09-06T22:38:15.521Z,14.57
2018-09-06T22:40:43.812Z,14.03
2018-09-06T22:43:12.203Z,15.20
2018-09-06T22:45:40.520Z,12.97
2018-09-06T22:48:08.836Z,12.47
2018-09-06T22:50:37.152Z,13.30
2018-09-06T22:53:05.471Z,11.63
2018-09-06T22:55:33.759Z,11.37
2018-09-06T22:58:02.091Z,11.27
2018-09-06T23:00:30.796Z,14.03
2018-09-06T23:03:04.622Z,12.07
2018-09-06T23:05:33.765Z,10.87
2018-09-06T23:08:02.644Z,12.47
2018-09-06T23:10:31.085Z,10.70
2018-09-06T23:12:59.445Z,9.07
2018-09-06T23:15:27.952Z,14.33
2018-09-06T23:17:56.332Z,12.37
2018-09-06T23:20:24.770Z,12.00
2018-09-06T23:22:53.294Z,12.10
2018-09-06T23:25:21.632Z,10.60
2018-09-06T23:27:50.527Z,11.83
2018-09-06T23:30:18.856Z,9.27
2018-09-06T23:32:47.480Z,9.73
2018-09-06T23:35:15.884Z,9.67
2018-09-06T23:37:44.218Z,11.27
2018-09-06T23:40:12.567Z,9.77
2018-09-06T23:42:40.879Z,10.37
2018-09-06T23:45:09.711Z,11.97
2018-09-06T23:47:37.994Z,10.57
2018-09-06T23:50:06.484Z,9.47
2018-09-06T23:52:34.912Z,12.70
2018-09-06T23:55:03.375Z,10.27
2018-09-06T23:57:31.775Z,12.23
